createdAt,value
2019-04-29T00:00:32.957Z,36.00
2019-04-29T00:01:07.305Z,36.10
2019-04-29T00:01:41.531Z,35.55
2019-04-29T00:02:20.543Z,35.48
2019-04-29T00:02:53.592Z,35.83
2019-04-29T00:03:26.544Z,35.15
2019-04-29T00:03:59.609Z,34.83
2019-04-29T00:04:32.752Z,34.78
2019-04-29T00:05:06.395Z,34.83
2019-04-29T00:05:39.555Z,34.83
2019-04-29T00:06:13.604Z,35.13
2019-04-29T00:06:46.615Z,35.03
2019-04-29T00:07:19.654Z,34.83
2019-04-29T00:07:52.700Z,34.45
2019-04-29T00:08:25.869Z,34.73
2019-04-29T00:08:58.954Z,35.00
2019-04-29T00:09:32.127Z,34.63
2019-04-29T00:10:07.191Z,34.83
2019-04-29T00:10:40.350Z,34.83
2019-04-29T00:11:13.488Z,34.73
2019-04-29T00:11:46.540Z,35.15
2019-04-29T00:12:19.891Z,34.63
2019-04-29T00:12:52.952Z,34.60
2019-04-29T00:13:26.211Z,34.40
2019-04-29T00:13:59.326Z,34.63
2019-04-29T00:14:34.375Z,34.88
2019-04-29T00:15:30.202Z,34.58
2019-04-29T00:16:11.039Z,35.30
2019-04-29T00:17:06.745Z,34.43
2019-04-29T00:17:49.590Z,35.43
2019-04-29T00:18:28.397Z,34.30
2019-04-29T00:19:26.703Z,34.43
2019-04-29T00:20:25.337Z,34.50
2019-04-29T00:20:58.379Z,34.33
2019-04-29T00:21:32.413Z,34.27
2019-04-29T00:22:05.715Z,34.35
2019-04-29T00:22:38.770Z,34.33
2019-04-29T00:23:11.791Z,34.23
2019-04-29T00:23:44.811Z,34.18
2019-04-29T00:24:17.802Z,34.75
2019-04-29T00:24:50.854Z,34.27
2019-04-29T00:25:24.045Z,34.15
2019-04-29T00:25:57.069Z,33.83
2019-04-29T00:26:31.276Z,34.20
2019-04-29T00:27:05.738Z,35.00
2019-04-29T00:27:38.927Z,34.80
2019-04-29T00:28:12.065Z,34.60
2019-04-29T00:28:45.062Z,34.30
2019-04-29T00:29:18.185Z,34.15
2019-04-29T00:29:51.191Z,34.50
2019-04-29T00:30:24.215Z,34.88
2019-04-29T00:30:57.299Z,34.40
2019-04-29T00:31:30.249Z,34.75
2019-04-29T00:32:03.856Z,34.65
2019-04-29T00:32:36.903Z,34.80
2019-04-29T00:33:09.895Z,34.55
2019-04-29T00:33:42.987Z,34.88
2019-04-29T00:34:15.993Z,34.90
2019-04-29T00:34:49.048Z,34.13
2019-04-29T00:35:22.031Z,34.20
2019-04-29T00:35:55.107Z,34.38
2019-04-29T00:36:33.081Z,34.45
2019-04-29T00:37:14.067Z,35.03
2019-04-29T00:38:09.557Z,34.48
2019-04-29T00:38:58.806Z,34.33
2019-04-29T00:39:57.501Z,34.48
2019-04-29T00:40:52.820Z,33.90
2019-04-29T00:41:52.386Z,34.85
2019-04-29T00:42:39.414Z,34.70
2019-04-29T00:43:20.970Z,34.60
2019-04-29T00:43:56.751Z,34.92
2019-04-29T00:44:29.771Z,34.63
2019-04-29T00:45:03.609Z,34.85
2019-04-29T00:45:36.820Z,34.95
2019-04-29T00:46:10.547Z,34.50
2019-04-29T00:46:43.741Z,35.58
2019-04-29T00:47:16.872Z,34.08
2019-04-29T00:47:50.857Z,34.10
2019-04-29T00:48:23.879Z,34.70
2019-04-29T00:48:57.152Z,34.35
2019-04-29T00:49:30.204Z,34.60
2019-04-29T00:50:05.763Z,35.00
2019-04-29T00:50:38.824Z,34.92
2019-04-29T00:51:11.919Z,34.43
2019-04-29T00:51:44.859Z,34.98
2019-04-29T00:52:17.861Z,34.63
2019-04-29T00:52:50.707Z,34.70
2019-04-29T00:53:23.746Z,34.75
2019-04-29T00:54:04.765Z,34.92
2019-04-29T00:54:43.671Z,34.90
2019-04-29T00:55:19.508Z,34.48
2019-04-29T00:55:52.814Z,34.95
2019-04-29T00:56:25.767Z,34.83
2019-04-29T00:56:58.921Z,35.28
2019-04-29T00:57:31.887Z,34.78
2019-04-29T00:58:04.851Z,34.80
2019-04-29T00:58:37.910Z,34.95
2019-04-29T00:59:10.942Z,35.35
2019-04-29T00:59:43.906Z,34.30
2019-04-29T01:00:34.705Z,34.80
2019-04-29T01:01:11.343Z,34.90
2019-04-29T01:01:44.369Z,35.28
2019-04-29T01:02:17.413Z,34.98
2019-04-29T01:02:50.319Z,35.50
2019-04-29T01:03:23.883Z,35.35
2019-04-29T01:03:56.986Z,35.30
2019-04-29T01:04:30.019Z,35.33
2019-04-29T01:05:03.537Z,34.80
2019-04-29T01:05:37.007Z,34.38
2019-04-29T01:06:11.034Z,35.08
2019-04-29T01:06:44.162Z,34.73
2019-04-29T01:07:17.289Z,34.95
2019-04-29T01:07:50.743Z,35.10
2019-04-29T01:08:23.879Z,34.43
2019-04-29T01:08:57.144Z,35.35
2019-04-29T01:09:30.649Z,34.80
2019-04-29T01:10:04.219Z,35.13
2019-04-29T01:10:37.119Z,34.92
2019-04-29T01:11:10.275Z,35.58
2019-04-29T01:11:43.270Z,35.08
2019-04-29T01:12:16.320Z,35.03
2019-04-29T01:12:49.206Z,35.15
2019-04-29T01:13:22.799Z,34.98
2019-04-29T01:13:55.797Z,34.80
2019-04-29T01:14:28.837Z,35.20
2019-04-29T01:15:01.841Z,35.13
2019-04-29T01:15:34.929Z,35.52
2019-04-29T01:16:07.953Z,34.73
2019-04-29T01:16:40.999Z,34.92
2019-04-29T01:17:15.102Z,35.45
2019-04-29T01:17:48.155Z,35.17
2019-04-29T01:18:21.173Z,36.00
2019-04-29T01:18:54.063Z,35.60
2019-04-29T01:19:26.965Z,35.38
2019-04-29T01:20:00.035Z,35.95
2019-04-29T01:20:33.041Z,35.55
2019-04-29T01:21:06.038Z,35.23
2019-04-29T01:21:39.077Z,36.08
2019-04-29T01:22:11.967Z,36.00
2019-04-29T01:22:45.003Z,35.73
2019-04-29T01:23:18.469Z,35.65
2019-04-29T01:23:51.551Z,35.28
2019-04-29T01:24:24.619Z,34.85
2019-04-29T01:24:57.557Z,36.33
2019-04-29T01:25:30.559Z,35.55
2019-04-29T01:26:27.827Z,36.00
2019-04-29T01:27:35.592Z,35.90
2019-04-29T01:28:16.256Z,36.17
2019-04-29T01:28:52.149Z,36.25
2019-04-29T01:29:27.146Z,36.20
2019-04-29T01:30:00.267Z,35.50
2019-04-29T01:31:04.521Z,36.40
2019-04-29T01:31:37.894Z,36.15
2019-04-29T01:32:10.887Z,36.50
2019-04-29T01:32:43.709Z,36.35
2019-04-29T01:33:16.735Z,36.03
2019-04-29T01:33:52.979Z,36.35
2019-04-29T01:34:30.941Z,36.17
2019-04-29T01:35:04.127Z,36.25
2019-04-29T01:35:37.885Z,36.53
2019-04-29T01:36:45.650Z,36.33
2019-04-29T01:37:18.874Z,36.70
2019-04-29T01:37:51.915Z,36.35
2019-04-29T01:38:24.941Z,36.17
2019-04-29T01:39:00.230Z,36.03
2019-04-29T01:39:40.913Z,35.55
2019-04-29T01:40:33.611Z,36.00
2019-04-29T01:41:13.167Z,36.58
2019-04-29T01:42:10.323Z,36.23
2019-04-29T01:42:43.515Z,36.40
2019-04-29T01:43:16.509Z,35.98
2019-04-29T01:44:09.153Z,35.70
2019-04-29T01:44:42.215Z,36.33
2019-04-29T01:45:15.130Z,35.95
2019-04-29T01:45:48.122Z,36.20
2019-04-29T01:46:21.176Z,36.55
2019-04-29T01:46:54.304Z,36.63
2019-04-29T01:47:27.142Z,36.13
2019-04-29T01:48:00.148Z,37.05
2019-04-29T01:48:33.146Z,36.50
2019-04-29T01:49:06.282Z,36.50
2019-04-29T01:49:39.185Z,36.73
2019-04-29T01:50:12.211Z,36.40
2019-04-29T01:50:45.284Z,36.45
2019-04-29T01:51:18.279Z,36.50
2019-04-29T01:51:51.424Z,36.50
2019-04-29T01:52:24.466Z,36.30
2019-04-29T01:52:57.392Z,36.65
2019-04-29T01:53:30.582Z,36.00
2019-04-29T01:54:03.969Z,36.28
2019-04-29T01:54:36.902Z,36.42
2019-04-29T01:55:09.939Z,35.95
2019-04-29T01:55:43.823Z,35.83
2019-04-29T01:56:17.979Z,35.90
2019-04-29T01:56:51.047Z,35.88
2019-04-29T01:57:24.164Z,36.65
2019-04-29T01:57:56.984Z,36.75
2019-04-29T01:58:29.945Z,37.08
2019-04-29T01:59:03.382Z,36.42
2019-04-29T01:59:36.612Z,36.23
2019-04-29T02:00:12.446Z,36.10
2019-04-29T02:00:45.543Z,36.70
2019-04-29T02:01:19.184Z,36.40
2019-04-29T02:01:52.250Z,36.00
2019-04-29T02:02:25.354Z,36.45
2019-04-29T02:02:58.423Z,35.80
2019-04-29T02:03:31.467Z,35.98
2019-04-29T02:04:04.720Z,35.58
2019-04-29T02:04:37.802Z,36.03
2019-04-29T02:05:11.076Z,36.13
2019-04-29T02:05:44.162Z,36.45
2019-04-29T02:06:17.265Z,36.13
2019-04-29T02:06:52.070Z,36.60
2019-04-29T02:07:25.142Z,37.15
2019-04-29T02:07:58.249Z,37.20
2019-04-29T02:08:31.376Z,37.05
2019-04-29T02:09:10.251Z,36.13
2019-04-29T02:10:01.751Z,36.70
2019-04-29T02:10:34.942Z,36.68
2019-04-29T02:11:07.945Z,37.13
2019-04-29T02:11:40.951Z,36.38
2019-04-29T02:12:13.969Z,36.88
2019-04-29T02:12:47.010Z,36.68
2019-04-29T02:13:20.006Z,36.23
2019-04-29T02:13:53.154Z,35.98
2019-04-29T02:14:26.193Z,36.13
2019-04-29T02:14:59.120Z,35.83
2019-04-29T02:15:32.147Z,35.75
2019-04-29T02:16:05.299Z,36.33
2019-04-29T02:16:38.214Z,36.48
2019-04-29T02:17:11.387Z,36.10
2019-04-29T02:17:44.175Z,36.40
2019-04-29T02:18:17.131Z,37.20
2019-04-29T02:18:50.152Z,37.20
2019-04-29T02:19:23.103Z,37.25
2019-04-29T02:19:56.012Z,37.42
2019-04-29T02:20:29.174Z,37.33
2019-04-29T02:21:02.064Z,37.28
2019-04-29T02:21:38.171Z,37.80
2019-04-29T02:22:27.610Z,37.45
2019-04-29T02:23:35.428Z,37.85
2019-04-29T02:24:14.084Z,36.77
2019-04-29T02:24:54.080Z,37.70
2019-04-29T02:25:32.875Z,37.20
2019-04-29T02:26:06.515Z,36.95
2019-04-29T02:26:39.504Z,37.20
2019-04-29T02:27:15.960Z,37.73
2019-04-29T02:27:48.991Z,37.10
2019-04-29T02:28:21.906Z,37.23
2019-04-29T02:28:55.944Z,36.95
2019-04-29T02:29:28.914Z,37.70
2019-04-29T02:30:02.764Z,37.80
2019-04-29T02:30:48.336Z,37.85
2019-04-29T02:31:39.945Z,37.08
2019-04-29T02:32:12.886Z,37.15
2019-04-29T02:32:45.925Z,37.08
2019-04-29T02:33:19.061Z,37.15
2019-04-29T02:33:52.060Z,37.40
2019-04-29T02:34:25.007Z,36.93
2019-04-29T02:34:57.980Z,37.23
2019-04-29T02:35:31.019Z,37.33
2019-04-29T02:36:03.973Z,36.95
2019-04-29T02:36:37.373Z,37.15
2019-04-29T02:37:12.204Z,37.00
2019-04-29T02:37:45.259Z,36.88
2019-04-29T02:38:43.818Z,37.45
2019-04-29T02:39:35.303Z,36.55
2019-04-29T02:40:21.990Z,38.10
2019-04-29T02:41:13.628Z,38.30
2019-04-29T02:42:15.312Z,37.28
2019-04-29T02:43:01.110Z,37.50
2019-04-29T02:43:35.615Z,37.50
2019-04-29T02:44:09.413Z,37.33
2019-04-29T02:44:42.556Z,36.90
2019-04-29T02:45:22.260Z,38.20
2019-04-29T02:45:55.287Z,37.35
2019-04-29T02:46:28.288Z,37.95
2019-04-29T02:47:01.435Z,37.55
2019-04-29T02:47:34.546Z,37.08
2019-04-29T02:48:08.440Z,37.42
2019-04-29T02:48:41.609Z,36.88
2019-04-29T02:49:14.686Z,36.77
2019-04-29T02:49:47.836Z,36.80
2019-04-29T02:50:21.923Z,37.05
2019-04-29T02:50:55.123Z,37.10
2019-04-29T02:51:47.028Z,36.93
2019-04-29T02:52:20.131Z,37.20
2019-04-29T02:52:53.194Z,36.45
2019-04-29T02:53:26.252Z,36.65
2019-04-29T02:53:59.339Z,36.00
2019-04-29T02:54:32.754Z,36.83
2019-04-29T02:55:07.934Z,36.50
2019-04-29T02:55:45.854Z,35.83
2019-04-29T02:56:18.826Z,36.15
2019-04-29T02:57:02.348Z,36.10
2019-04-29T02:57:53.595Z,36.15
2019-04-29T02:58:37.803Z,37.23
2019-04-29T02:59:11.328Z,36.20
2019-04-29T02:59:46.822Z,35.98
2019-04-29T03:00:31.866Z,37.00
2019-04-29T03:01:32.442Z,36.40
2019-04-29T03:02:32.262Z,37.48
2019-04-29T03:03:14.997Z,36.80
2019-04-29T03:04:19.795Z,36.90
2019-04-29T03:05:15.448Z,37.10
2019-04-29T03:05:51.904Z,36.73
2019-04-29T03:06:25.817Z,36.93
2019-04-29T03:06:58.950Z,37.20
2019-04-29T03:07:32.027Z,36.88
2019-04-29T03:08:05.042Z,36.45
2019-04-29T03:08:38.164Z,37.38
2019-04-29T03:09:12.153Z,37.28
2019-04-29T03:09:45.448Z,36.73
2019-04-29T03:10:18.489Z,37.15
2019-04-29T03:10:51.548Z,37.58
2019-04-29T03:11:24.815Z,37.58
2019-04-29T03:12:01.639Z,37.55
2019-04-29T03:12:33.067Z,37.90
2019-04-29T03:13:07.324Z,38.00
2019-04-29T03:13:40.479Z,37.17
2019-04-29T03:14:13.710Z,36.48
2019-04-29T03:14:46.651Z,36.73
2019-04-29T03:15:29.304Z,37.05
2019-04-29T03:16:03.894Z,36.70
2019-04-29T03:16:36.964Z,36.70
2019-04-29T03:17:10.217Z,36.53
2019-04-29T03:17:43.410Z,37.05
2019-04-29T03:18:16.818Z,37.38
2019-04-29T03:18:58.006Z,36.85
2019-04-29T03:19:35.693Z,37.20
2019-04-29T03:20:17.781Z,37.25
2019-04-29T03:21:04.641Z,36.93
2019-04-29T03:21:47.718Z,37.53
2019-04-29T03:22:20.762Z,37.65
2019-04-29T03:23:07.055Z,37.70
2019-04-29T03:23:40.204Z,38.23
2019-04-29T03:24:13.325Z,38.73
2019-04-29T03:24:46.418Z,38.73
2019-04-29T03:25:19.359Z,38.17
2019-04-29T03:25:52.416Z,39.42
2019-04-29T03:26:25.610Z,38.10
2019-04-29T03:27:00.100Z,38.30
2019-04-29T03:27:33.174Z,38.28
2019-04-29T03:28:06.223Z,37.88
2019-04-29T03:28:39.342Z,38.33
2019-04-29T03:29:21.697Z,38.53
2019-04-29T03:29:55.723Z,38.50
2019-04-29T03:30:28.762Z,37.90
2019-04-29T03:31:01.818Z,38.00
2019-04-29T03:31:39.029Z,38.08
2019-04-29T03:32:09.586Z,38.85
2019-04-29T03:32:42.637Z,38.63
2019-04-29T03:33:15.616Z,38.53
2019-04-29T03:33:48.586Z,38.20
2019-04-29T03:34:21.840Z,38.55
2019-04-29T03:34:56.112Z,38.73
2019-04-29T03:35:29.125Z,37.95
2019-04-29T03:36:02.156Z,38.30
2019-04-29T03:36:35.290Z,38.95
2019-04-29T03:37:08.430Z,38.80
2019-04-29T03:37:41.438Z,38.65
2019-04-29T03:38:14.580Z,39.03
2019-04-29T03:38:47.505Z,38.98
2019-04-29T03:39:20.518Z,38.78
2019-04-29T03:39:53.415Z,38.13
2019-04-29T03:40:26.468Z,38.38
2019-04-29T03:40:59.358Z,38.40
2019-04-29T03:41:33.166Z,38.60
2019-04-29T03:42:07.401Z,38.73
2019-04-29T03:42:40.792Z,38.23
2019-04-29T03:43:13.790Z,38.90
2019-04-29T03:43:46.936Z,38.98
2019-04-29T03:44:20.161Z,38.50
2019-04-29T03:44:54.204Z,38.20
2019-04-29T03:45:27.184Z,37.70
2019-04-29T03:46:00.436Z,38.00
2019-04-29T03:46:33.556Z,36.90
2019-04-29T03:47:06.508Z,37.80
2019-04-29T03:47:39.541Z,37.45
2019-04-29T03:48:12.410Z,37.08
2019-04-29T03:48:45.424Z,37.13
2019-04-29T03:49:18.569Z,38.35
2019-04-29T03:49:51.557Z,37.13
2019-04-29T03:50:25.523Z,37.00
2019-04-29T03:50:58.622Z,37.30
2019-04-29T03:51:31.753Z,37.28
2019-04-29T03:52:04.864Z,37.28
2019-04-29T03:52:37.709Z,38.17
2019-04-29T03:53:10.603Z,38.13
2019-04-29T03:53:43.662Z,37.63
2019-04-29T03:54:16.518Z,37.45
2019-04-29T03:54:49.780Z,37.35
2019-04-29T03:55:38.311Z,37.90
2019-04-29T03:55:58.820Z,37.70
2019-04-29T03:56:32.743Z,37.67
2019-04-29T03:57:06.528Z,37.98
2019-04-29T03:57:39.471Z,37.63
2019-04-29T03:58:13.099Z,37.40
2019-04-29T03:58:46.171Z,36.95
2019-04-29T03:59:19.356Z,36.95
2019-04-29T03:59:52.332Z,37.10
2019-04-29T04:00:25.469Z,37.73
2019-04-29T04:01:15.705Z,37.28
2019-04-29T04:02:08.238Z,36.75
2019-04-29T04:03:19.803Z,37.20
2019-04-29T04:04:04.208Z,36.93
2019-04-29T04:05:12.120Z,37.28
2019-04-29T04:05:54.873Z,37.63
2019-04-29T04:06:34.301Z,37.55
2019-04-29T04:07:25.511Z,37.73
2019-04-29T04:08:03.143Z,38.28
2019-04-29T04:09:04.758Z,37.78
2019-04-29T04:09:27.967Z,37.20
2019-04-29T04:10:01.118Z,37.85
2019-04-29T04:10:35.316Z,37.75
2019-04-29T04:11:08.558Z,37.58
2019-04-29T04:11:41.453Z,38.20
2019-04-29T04:12:14.425Z,38.15
2019-04-29T04:12:47.325Z,38.45
2019-04-29T04:13:20.220Z,37.38
2019-04-29T04:13:53.244Z,38.40
2019-04-29T04:14:26.276Z,38.45
2019-04-29T04:14:59.297Z,36.73
2019-04-29T04:15:32.330Z,37.78
2019-04-29T04:16:07.202Z,37.65
2019-04-29T04:17:20.446Z,37.95
2019-04-29T04:18:15.291Z,37.20
2019-04-29T04:18:48.296Z,37.95
2019-04-29T04:19:21.575Z,37.13
2019-04-29T04:19:54.633Z,37.10
2019-04-29T04:20:27.778Z,36.95
2019-04-29T04:21:00.681Z,37.35
2019-04-29T04:21:33.701Z,38.48
2019-04-29T04:22:06.716Z,38.30
2019-04-29T04:22:46.783Z,38.90
2019-04-29T04:23:19.662Z,39.23
2019-04-29T04:23:52.579Z,38.85
2019-04-29T04:24:25.476Z,39.42
2019-04-29T04:24:58.444Z,38.75
2019-04-29T04:25:31.475Z,39.33
2019-04-29T04:26:04.613Z,38.63
2019-04-29T04:26:37.646Z,38.17
2019-04-29T04:27:10.658Z,38.60
2019-04-29T04:27:43.773Z,38.73
2019-04-29T04:28:16.816Z,37.90
2019-04-29T04:28:49.949Z,38.88
2019-04-29T04:29:23.897Z,38.02
2019-04-29T04:29:57.010Z,38.60
2019-04-29T04:30:29.993Z,38.67
2019-04-29T04:31:06.787Z,38.98
2019-04-29T04:31:37.801Z,39.15
2019-04-29T04:32:10.802Z,38.50
2019-04-29T04:32:43.985Z,40.12
2019-04-29T04:33:18.134Z,39.53
2019-04-29T04:33:51.072Z,40.45
2019-04-29T04:34:23.972Z,39.83
2019-04-29T04:34:57.100Z,39.63
2019-04-29T04:35:30.167Z,38.98
2019-04-29T04:36:04.181Z,38.65
2019-04-29T04:36:37.012Z,38.95
2019-04-29T04:37:10.121Z,39.03
2019-04-29T04:37:44.188Z,38.13
2019-04-29T04:38:17.326Z,38.83
2019-04-29T04:38:50.327Z,38.23
2019-04-29T04:39:24.188Z,38.83
2019-04-29T04:39:57.247Z,38.13
2019-04-29T04:40:34.599Z,38.10
2019-04-29T04:41:08.594Z,37.50
2019-04-29T04:41:41.616Z,38.08
2019-04-29T04:42:14.526Z,38.23
2019-04-29T04:42:47.499Z,36.77
2019-04-29T04:43:20.548Z,36.90
2019-04-29T04:43:53.455Z,37.10
2019-04-29T04:44:45.980Z,36.68
2019-04-29T04:45:19.111Z,37.38
2019-04-29T04:45:52.096Z,37.05
2019-04-29T04:46:25.202Z,37.20
2019-04-29T04:46:58.021Z,37.42
2019-04-29T04:47:31.136Z,38.05
2019-04-29T04:48:04.284Z,37.30
2019-04-29T04:48:37.222Z,36.70
2019-04-29T04:49:10.328Z,37.35
2019-04-29T04:49:43.333Z,37.20
2019-04-29T04:50:16.847Z,37.38
2019-04-29T04:50:49.843Z,37.38
2019-04-29T04:51:22.636Z,38.02
2019-04-29T04:51:55.549Z,37.63
2019-04-29T04:52:28.655Z,37.40
2019-04-29T04:53:01.759Z,37.60
2019-04-29T04:53:34.718Z,37.38
2019-04-29T04:54:07.699Z,38.30
2019-04-29T04:54:40.677Z,37.98
2019-04-29T04:55:13.910Z,38.50
2019-04-29T04:55:47.802Z,38.70
2019-04-29T04:56:20.795Z,38.25
2019-04-29T04:56:53.802Z,39.03
2019-04-29T04:57:26.698Z,40.03
2019-04-29T04:57:59.836Z,39.63
2019-04-29T04:58:32.866Z,39.35
2019-04-29T04:59:05.815Z,39.78
2019-04-29T04:59:38.973Z,38.67
2019-04-29T05:00:20.242Z,39.13
2019-04-29T05:00:53.312Z,40.12
2019-04-29T05:01:26.349Z,40.63
2019-04-29T05:02:00.380Z,40.35
2019-04-29T05:02:33.338Z,40.67
2019-04-29T05:03:07.944Z,40.65
2019-04-29T05:03:40.962Z,41.63
2019-04-29T05:04:14.052Z,41.40
2019-04-29T05:04:47.191Z,42.30
2019-04-29T05:05:20.195Z,42.03
2019-04-29T05:05:53.210Z,41.02
2019-04-29T05:06:26.251Z,41.40
2019-04-29T05:06:59.290Z,42.27
2019-04-29T05:07:32.294Z,42.58
2019-04-29T05:08:05.328Z,41.88
2019-04-29T05:08:38.387Z,42.70
2019-04-29T05:09:11.290Z,41.85
2019-04-29T05:09:44.412Z,42.30
2019-04-29T05:10:17.562Z,41.25
2019-04-29T05:10:50.516Z,42.03
2019-04-29T05:11:23.432Z,42.08
2019-04-29T05:11:56.434Z,41.53
2019-04-29T05:12:29.450Z,40.95
2019-04-29T05:13:03.675Z,41.15
2019-04-29T05:13:36.686Z,42.23
2019-04-29T05:14:09.700Z,41.90
2019-04-29T05:14:42.808Z,41.37
2019-04-29T05:15:16.023Z,40.52
2019-04-29T05:15:49.128Z,41.20
2019-04-29T05:16:22.258Z,41.02
2019-04-29T05:16:55.302Z,40.70
2019-04-29T05:17:28.328Z,40.92
2019-04-29T05:18:01.251Z,40.43
2019-04-29T05:18:35.318Z,41.28
2019-04-29T05:19:08.350Z,40.85
2019-04-29T05:19:41.397Z,41.02
2019-04-29T05:20:14.418Z,40.78
2019-04-29T05:20:48.728Z,40.45
2019-04-29T05:21:21.725Z,40.83
2019-04-29T05:21:54.835Z,41.55
2019-04-29T05:22:27.825Z,40.75
2019-04-29T05:23:00.901Z,41.08
2019-04-29T05:23:33.718Z,41.92
2019-04-29T05:24:06.642Z,39.90
2019-04-29T05:24:39.710Z,40.15
2019-04-29T05:25:12.815Z,40.20
2019-04-29T05:25:45.878Z,39.92
2019-04-29T05:26:19.015Z,39.98
2019-04-29T05:26:52.013Z,39.92
2019-04-29T05:27:25.034Z,39.88
2019-04-29T05:27:59.382Z,40.98
2019-04-29T05:28:32.308Z,41.02
2019-04-29T05:29:05.216Z,41.33
2019-04-29T05:29:38.196Z,41.70
2019-04-29T05:30:11.270Z,41.55
2019-04-29T05:30:44.402Z,40.58
2019-04-29T05:31:17.432Z,41.75
2019-04-29T05:31:50.474Z,41.42
2019-04-29T05:32:23.535Z,41.18
2019-04-29T05:32:56.573Z,40.12
2019-04-29T05:33:29.578Z,40.35
2019-04-29T05:34:02.629Z,40.15
2019-04-29T05:34:41.738Z,40.43
2019-04-29T05:35:14.398Z,40.55
2019-04-29T05:36:19.068Z,40.80
2019-04-29T05:37:14.909Z,40.40
2019-04-29T05:38:02.971Z,39.70
2019-04-29T05:38:42.433Z,39.88
2019-04-29T05:39:21.942Z,39.95
2019-04-29T05:39:54.874Z,39.70
2019-04-29T05:40:39.969Z,39.95
2019-04-29T05:41:13.376Z,39.63
2019-04-29T05:41:46.474Z,40.15
2019-04-29T05:42:20.417Z,39.65
2019-04-29T05:42:54.069Z,39.20
2019-04-29T05:43:40.369Z,38.85
2019-04-29T05:44:22.960Z,38.80
2019-04-29T05:45:03.239Z,39.13
2019-04-29T05:45:46.200Z,38.78
2019-04-29T05:46:26.194Z,39.63
2019-04-29T05:47:17.987Z,39.58
2019-04-29T05:48:06.721Z,39.42
2019-04-29T05:48:39.702Z,39.50
2019-04-29T05:49:15.157Z,39.25
2019-04-29T05:50:06.737Z,39.05
2019-04-29T05:50:53.302Z,38.95
2019-04-29T05:51:48.016Z,39.30
2019-04-29T05:52:41.167Z,38.42
2019-04-29T05:53:28.386Z,39.10
2019-04-29T05:54:02.198Z,39.38
2019-04-29T05:54:35.280Z,38.58
2019-04-29T05:55:09.597Z,39.08
2019-04-29T05:55:43.666Z,38.80
2019-04-29T05:56:18.138Z,38.80
2019-04-29T05:56:51.210Z,38.58
2019-04-29T05:57:25.440Z,39.05
2019-04-29T05:58:10.502Z,38.65
2019-04-29T05:58:43.447Z,39.67
2019-04-29T05:59:16.370Z,40.00
2019-04-29T05:59:49.586Z,39.50
2019-04-29T06:00:23.217Z,39.70
2019-04-29T06:01:01.290Z,39.27
2019-04-29T06:01:34.370Z,38.60
2019-04-29T06:02:07.391Z,38.65
2019-04-29T06:02:40.315Z,38.60
2019-04-29T06:03:13.332Z,39.50
2019-04-29T06:03:46.354Z,39.20
2019-04-29T06:04:19.420Z,39.70
2019-04-29T06:04:53.952Z,39.83
2019-04-29T06:05:27.136Z,39.88
2019-04-29T06:06:00.352Z,39.53
2019-04-29T06:06:33.507Z,39.33
2019-04-29T06:07:06.638Z,39.25
2019-04-29T06:07:39.549Z,40.80
2019-04-29T06:08:12.617Z,39.67
2019-04-29T06:08:45.899Z,39.85
2019-04-29T06:09:18.998Z,39.33
2019-04-29T06:09:51.923Z,39.98
2019-04-29T06:10:24.865Z,39.23
2019-04-29T06:10:57.853Z,38.90
2019-04-29T06:11:30.770Z,38.50
2019-04-29T06:12:04.066Z,38.78
2019-04-29T06:12:37.013Z,39.05
2019-04-29T06:13:18.899Z,38.28
2019-04-29T06:14:04.588Z,38.85
2019-04-29T06:14:37.863Z,38.20
2019-04-29T06:15:11.131Z,38.40
2019-04-29T06:15:44.138Z,38.35
2019-04-29T06:16:21.054Z,38.80
2019-04-29T06:16:52.904Z,38.08
2019-04-29T06:17:29.079Z,38.42
2019-04-29T06:18:02.511Z,38.98
2019-04-29T06:18:35.556Z,37.75
2019-04-29T06:19:16.592Z,37.95
2019-04-29T06:20:00.268Z,38.25
2019-04-29T06:20:34.108Z,37.80
2019-04-29T06:21:09.682Z,37.67
2019-04-29T06:21:45.821Z,37.28
2019-04-29T06:22:18.890Z,37.63
2019-04-29T06:22:53.833Z,37.60
2019-04-29T06:23:34.580Z,37.20
2019-04-29T06:24:07.813Z,36.30
2019-04-29T06:24:42.150Z,36.33
2019-04-29T06:25:15.596Z,37.33
2019-04-29T06:25:48.755Z,37.13
2019-04-29T06:26:22.122Z,36.38
2019-04-29T06:26:55.414Z,37.08
2019-04-29T06:27:28.518Z,36.75
2019-04-29T06:28:03.498Z,36.60
2019-04-29T06:28:38.522Z,35.30
2019-04-29T06:29:11.523Z,36.67
2019-04-29T06:29:44.489Z,36.25
2019-04-29T06:30:17.522Z,35.80
2019-04-29T06:30:51.971Z,36.28
2019-04-29T06:31:26.828Z,35.70
2019-04-29T06:31:59.884Z,36.42
2019-04-29T06:32:33.052Z,36.20
2019-04-29T06:33:06.048Z,35.60
2019-04-29T06:33:39.094Z,35.58
2019-04-29T06:34:12.104Z,35.60
2019-04-29T06:34:45.168Z,34.95
2019-04-29T06:35:18.234Z,35.23
2019-04-29T06:35:51.494Z,35.23
2019-04-29T06:36:24.674Z,35.15
2019-04-29T06:36:57.794Z,35.30
2019-04-29T06:37:30.868Z,35.23
2019-04-29T06:38:04.372Z,36.08
2019-04-29T06:38:39.214Z,35.40
2019-04-29T06:39:12.414Z,35.45
2019-04-29T06:39:48.318Z,35.48
2019-04-29T06:40:24.166Z,34.98
2019-04-29T06:40:57.294Z,35.50
2019-04-29T06:41:30.559Z,35.63
2019-04-29T06:42:07.631Z,35.30
2019-04-29T06:42:40.654Z,35.83
2019-04-29T06:43:17.158Z,36.05
2019-04-29T06:43:53.111Z,36.17
2019-04-29T06:44:25.079Z,34.38
2019-04-29T06:44:58.016Z,34.70
2019-04-29T06:45:31.012Z,34.20
2019-04-29T06:46:05.840Z,33.90
2019-04-29T06:46:38.877Z,33.92
2019-04-29T06:47:11.940Z,33.88
2019-04-29T06:47:47.458Z,34.13
2019-04-29T06:48:20.928Z,33.70
2019-04-29T06:48:54.192Z,33.28
2019-04-29T06:49:27.133Z,33.45
2019-04-29T06:50:00.262Z,32.75
2019-04-29T06:50:33.448Z,33.10
2019-04-29T06:51:06.380Z,33.28
2019-04-29T06:51:39.460Z,33.80
2019-04-29T06:52:12.482Z,33.60
2019-04-29T06:52:45.554Z,33.42
2019-04-29T06:53:21.238Z,34.13
2019-04-29T06:53:53.632Z,34.00
2019-04-29T06:54:26.645Z,33.65
2019-04-29T06:54:59.868Z,33.20
2019-04-29T06:55:33.034Z,33.78
2019-04-29T06:56:09.133Z,34.08
2019-04-29T06:56:42.344Z,34.38
2019-04-29T06:57:15.384Z,33.45
2019-04-29T06:57:48.599Z,33.05
2019-04-29T06:58:21.648Z,32.95
2019-04-29T06:58:54.742Z,33.18
2019-04-29T06:59:27.848Z,32.67
2019-04-29T07:00:00.946Z,33.48
2019-04-29T07:00:35.294Z,33.33
2019-04-29T07:01:08.272Z,32.90
2019-04-29T07:01:41.352Z,32.88
2019-04-29T07:02:15.935Z,33.25
2019-04-29T07:02:49.864Z,33.10
2019-04-29T07:03:25.458Z,33.55
2019-04-29T07:04:01.464Z,32.85
2019-04-29T07:04:37.008Z,32.88
2019-04-29T07:05:11.452Z,33.30
2019-04-29T07:05:44.465Z,33.10
2019-04-29T07:06:19.267Z,33.25
2019-04-29T07:06:57.496Z,32.33
2019-04-29T07:07:27.086Z,32.80
2019-04-29T07:08:00.204Z,32.35
2019-04-29T07:08:33.972Z,33.10
2019-04-29T07:09:07.083Z,33.60
2019-04-29T07:09:40.604Z,32.83
2019-04-29T07:10:16.481Z,33.02
2019-04-29T07:10:48.710Z,33.38
2019-04-29T07:11:21.940Z,33.02
2019-04-29T07:12:01.374Z,33.23
2019-04-29T07:12:30.106Z,33.08
2019-04-29T07:13:04.295Z,33.02
2019-04-29T07:13:37.334Z,33.05
2019-04-29T07:14:10.654Z,33.08
2019-04-29T07:14:43.714Z,33.78
2019-04-29T07:15:16.793Z,33.38
2019-04-29T07:15:50.937Z,33.42
2019-04-29T07:16:27.343Z,33.25
2019-04-29T07:17:00.754Z,33.00
2019-04-29T07:17:36.591Z,32.80
2019-04-29T07:18:09.862Z,32.78
2019-04-29T07:18:48.183Z,33.30
2019-04-29T07:19:17.795Z,33.33
2019-04-29T07:19:51.033Z,33.30
2019-04-29T07:20:25.182Z,33.05
2019-04-29T07:20:58.636Z,33.20
2019-04-29T07:21:31.797Z,33.35
2019-04-29T07:22:05.180Z,32.65
2019-04-29T07:22:38.302Z,33.13
2019-04-29T07:23:11.507Z,33.23
2019-04-29T07:23:44.683Z,33.08
2019-04-29T07:24:20.323Z,33.83
2019-04-29T07:24:52.858Z,33.53
2019-04-29T07:25:28.798Z,33.55
2019-04-29T07:26:02.588Z,33.20
2019-04-29T07:26:36.020Z,33.60
2019-04-29T07:27:09.173Z,33.50
2019-04-29T07:27:44.262Z,33.30
2019-04-29T07:28:19.664Z,32.85
2019-04-29T07:28:55.817Z,33.23
2019-04-29T07:29:30.762Z,33.33
2019-04-29T07:30:06.568Z,33.40
2019-04-29T07:30:59.967Z,33.85
2019-04-29T07:31:13.656Z,33.80
2019-04-29T07:31:46.805Z,33.88
2019-04-29T07:32:19.927Z,33.48
2019-04-29T07:32:52.957Z,33.48
2019-04-29T07:33:26.028Z,33.95
2019-04-29T07:33:59.136Z,33.98
2019-04-29T07:34:33.776Z,33.73
2019-04-29T07:35:09.812Z,33.10
2019-04-29T07:35:42.948Z,32.80
2019-04-29T07:36:18.581Z,32.55
2019-04-29T07:36:53.293Z,33.10
2019-04-29T07:37:29.788Z,32.85